Wilmette, Illinois
Current Conditions -  °F | °C
As of 8:52 PM on Monday 20 Oct 2014 (Local Time) from KPWK Reporting Station
Overcast Overcast  
Wind Chill: 54°   Ceiling: 6000
Heat Index: 54°   Visibility: 10mi
Dew Point: 42°   Wind: 7mph
Humidity: 64%   Direction: 360°N
Pressure: 30.01"   Gusts: NA
Location:  42.08°N, 87.71°W
Report Text: KPWK 210152Z 36006KT 10SM OVC060 12/06 A3001 RMK AO2 SLP162 T01220056
Loading
Personal Weather Stations






























Interactive Weather Map
Tropical Storm Tracking
New forecast layout! Learn more

10-Day Weather Forecast

Advertisements
Track Severe Weather on mobile